Time;durP1;ratioP1;P1;durP2;ratioP2;P2;SDS_P1;SDS_P2;PMS_P1;PMS_P2;Temp;Humidity;BMP_temperature;BMP_pressure;BME280_temperature;BME280_humidity;BME280_pressure;Samples;Min_cycle;Max_cycle;Signal;HPM_P1;HPM_P2
2020/12/01 00:00:47;;;;;;;13.07;3.40;;;7.90;99.90;;;;;;4419531;32;20350;-69
2020/12/01 00:03:17;;;;;;;16.80;3.07;;;7.90;99.90;;;;;;4421186;32;20187;-71
2020/12/01 00:05:46;;;;;;;18.70;2.93;;;8.00;99.90;;;;;;4418424;32;20247;-72
2020/12/01 00:08:12;;;;;;;19.73;4.27;;;7.90;99.90;;;;;;4420417;32;20189;-70
2020/12/01 00:10:39;;;;;;;17.90;3.97;;;7.90;99.90;;;;;;4421892;32;20524;-68
2020/12/01 00:13:07;;;;;;;26.83;4.10;;;7.80;99.90;;;;;;4421525;32;20514;-67
2020/12/01 00:15:33;;;;;;;14.43;3.23;;;7.80;99.90;;;;;;4419166;32;20168;-68
2020/12/01 00:18:00;;;;;;;28.87;4.07;;;7.80;99.90;;;;;;4423059;32;20186;-68
2020/12/01 00:20:26;;;;;;;18.50;3.90;;;7.80;99.90;;;;;;4419496;32;20214;-70
2020/12/01 00:22:54;;;;;;;27.57;4.17;;;7.90;99.90;;;;;;4419984;32;20215;-69
2020/12/01 00:25:21;;;;;;;23.67;4.10;;;7.80;99.90;;;;;;4418482;32;20168;-70
2020/12/01 00:27:47;;;;;;;17.23;4.37;;;7.90;99.90;;;;;;4406440;32;20214;-70
2020/12/01 00:30:18;;;;;;;30.50;4.33;;;7.80;99.90;;;;;;4419793;32;20549;-69
2020/12/01 00:32:45;;;;;;;24.27;4.57;;;7.90;99.90;;;;;;4421349;32;20179;-69
2020/12/01 00:35:17;;;;;;;23.93;4.33;;;7.90;99.90;;;;;;4420951;32;20177;-70
2020/12/01 00:37:43;;;;;;;24.73;5.47;;;7.90;99.90;;;;;;4420447;32;20207;-69
2020/12/01 00:40:11;;;;;;;26.87;4.43;;;7.90;99.90;;;;;;4420939;32;20179;-69
2020/12/01 00:42:38;;;;;;;23.97;4.67;;;7.90;99.90;;;;;;4420548;32;20247;-71
2020/12/01 00:45:06;;;;;;;29.30;4.53;;;7.90;99.90;;;;;;4420632;32;20185;-69
2020/12/01 00:47:33;;;;;;;33.53;4.57;;;7.90;99.90;;;;;;4417546;32;20206;-71
2020/12/01 00:50:00;;;;;;;31.40;5.67;;;8.00;99.90;;;;;;4419741;32;20175;-69
2020/12/01 00:52:29;;;;;;;15.83;3.83;;;7.90;99.90;;;;;;4415178;32;20223;-69
2020/12/01 00:54:57;;;;;;;28.33;5.17;;;7.80;99.90;;;;;;4415480;32;20194;-70
2020/12/01 00:57:23;;;;;;;32.10;5.63;;;8.00;99.90;;;;;;4419290;32;20211;-69
2020/12/01 00:59:50;;;;;;;28.67;4.90;;;7.70;99.90;;;;;;4420438;32;20212;-69
2020/12/01 01:02:16;;;;;;;23.77;4.83;;;7.70;99.90;;;;;;4419933;32;20650;-69
2020/12/01 01:04:44;;;;;;;21.40;4.07;;;7.60;99.90;;;;;;4420171;32;20163;-69
2020/12/01 01:07:10;;;;;;;27.07;4.13;;;7.60;99.90;;;;;;4422845;32;20615;-70
2020/12/01 01:09:36;;;;;;;22.07;4.40;;;7.70;99.90;;;;;;4418623;32;20211;-69
2020/12/01 01:12:04;;;;;;;24.23;4.10;;;7.70;99.90;;;;;;4420154;32;20223;-69
2020/12/01 01:14:31;;;;;;;25.27;5.10;;;7.70;99.90;;;;;;4420219;32;20193;-69
2020/12/01 01:16:57;;;;;;;24.03;4.93;;;7.70;99.90;;;;;;4420719;32;20265;-69
2020/12/01 01:19:24;;;;;;;27.17;5.20;;;7.60;99.90;;;;;;4421159;32;20536;-69
2020/12/01 01:21:51;;;;;;;19.97;3.77;;;7.60;99.90;;;;;;4410682;32;20219;-71
2020/12/01 01:24:19;;;;;;;26.70;4.83;;;7.60;99.90;;;;;;4419706;32;20223;-69
2020/12/01 01:26:50;;;;;;;24.33;4.20;;;7.60;99.90;;;;;;4420365;32;20238;-69
2020/12/01 01:29:18;;;;;;;20.37;3.63;;;7.60;99.90;;;;;;4420033;32;20193;-69
2020/12/01 01:31:45;;;;;;;24.30;4.63;;;7.50;99.90;;;;;;4419940;32;20211;-69
2020/12/01 01:34:11;;;;;;;23.03;3.57;;;7.50;99.90;;;;;;4420120;32;20222;-71
2020/12/01 01:36:37;;;;;;;29.57;4.23;;;7.40;99.90;;;;;;4415766;32;20223;-71
2020/12/01 01:39:06;;;;;;;23.97;4.60;;;7.50;99.90;;;;;;4419998;32;20211;-69
2020/12/01 01:41:37;;;;;;;23.87;4.07;;;7.40;99.90;;;;;;4419855;32;20186;-68
2020/12/01 01:44:14;;;;;;;24.20;3.70;;;7.50;99.90;;;;;;4420339;32;20219;-68
2020/12/01 01:46:43;;;;;;;23.63;4.37;;;7.40;99.90;;;;;;4419868;32;20513;-69
2020/12/01 01:49:13;;;;;;;22.53;3.60;;;7.40;99.90;;;;;;4419619;32;20220;-70
2020/12/01 01:51:48;;;;;;;24.90;3.67;;;7.40;99.90;;;;;;4419493;32;20219;-68
2020/12/01 01:54:17;;;;;;;21.60;3.77;;;7.40;99.90;;;;;;4419728;32;20228;-68
2020/12/01 01:56:46;;;;;;;26.00;3.63;;;7.40;99.90;;;;;;4418990;32;20219;-69
2020/12/01 01:59:14;;;;;;;21.07;3.00;;;7.40;99.90;;;;;;4419670;32;20206;-69
2020/12/01 02:01:42;;;;;;;25.27;3.63;;;7.40;99.90;;;;;;4419206;32;20187;-71
2020/12/01 02:04:11;;;;;;;16.87;3.73;;;7.40;99.90;;;;;;4419130;32;20223;-70
2020/12/01 02:06:41;;;;;;;26.07;4.00;;;7.50;99.90;;;;;;4419571;32;20247;-70
2020/12/01 02:09:10;;;;;;;21.80;3.90;;;7.40;99.90;;;;;;4419754;32;20182;-71
2020/12/01 02:11:40;;;;;;;16.27;3.23;;;7.40;99.90;;;;;;4417680;32;20515;-70
2020/12/01 02:14:11;;;;;;;22.17;4.30;;;7.40;99.90;;;;;;4419951;32;20204;-71
2020/12/01 02:16:45;;;;;;;21.17;4.07;;;7.50;99.90;;;;;;4419185;32;20569;-71
2020/12/01 02:19:15;;;;;;;18.43;4.07;;;7.40;99.90;;;;;;4421185;32;20180;-69
2020/12/01 02:21:43;;;;;;;23.67;4.40;;;7.30;99.90;;;;;;4419085;32;20215;-69
2020/12/01 02:24:12;;;;;;;27.47;4.73;;;7.40;99.90;;;;;;4419604;32;20214;-71
2020/12/01 02:26:39;;;;;;;23.03;3.90;;;7.40;99.90;;;;;;4419209;32;20354;-69
2020/12/01 02:29:09;;;;;;;22.77;3.90;;;7.40;99.90;;;;;;4420592;32;20223;-68
2020/12/01 02:31:36;;;;;;;19.37;4.40;;;7.40;99.90;;;;;;4419118;32;20623;-69
2020/12/01 02:34:05;;;;;;;22.20;3.93;;;7.40;99.90;;;;;;4416761;32;20236;-69
2020/12/01 02:36:31;;;;;;;19.47;4.37;;;7.40;99.90;;;;;;4409749;32;20339;-69
2020/12/01 02:38:57;;;;;;;25.77;4.73;;;7.30;99.90;;;;;;4403137;32;20346;-70
2020/12/01 02:41:24;;;;;;;21.13;4.37;;;7.30;99.90;;;;;;4418047;32;20186;-69
2020/12/01 02:43:51;;;;;;;20.63;3.67;;;7.30;99.90;;;;;;4419241;32;20211;-69
2020/12/01 02:46:17;;;;;;;21.47;4.27;;;7.30;99.90;;;;;;4418965;32;20607;-68
2020/12/01 02:48:43;;;;;;;15.27;3.33;;;7.40;99.90;;;;;;4419726;32;20192;-70
2020/12/01 02:51:13;;;;;;;18.37;3.60;;;7.40;99.90;;;;;;4417500;32;20200;-71
2020/12/01 02:53:40;;;;;;;19.50;3.40;;;7.40;99.90;;;;;;4419567;32;20611;-70
2020/12/01 02:56:06;;;;;;;23.03;4.17;;;7.40;99.90;;;;;;4418887;32;20222;-68
2020/12/01 02:58:40;;;;;;;21.97;4.07;;;7.50;99.90;;;;;;4419569;32;20190;-68
2020/12/01 03:01:07;;;;;;;20.73;3.47;;;7.50;99.90;;;;;;4418510;32;20163;-68
2020/12/01 03:03:33;;;;;;;19.97;3.63;;;7.50;99.90;;;;;;4419215;32;20226;-69
2020/12/01 03:05:59;;;;;;;19.10;3.17;;;7.50;99.90;;;;;;4418213;32;20271;-69
2020/12/01 03:08:26;;;;;;;16.87;2.63;;;7.50;99.90;;;;;;4419275;32;20650;-69
2020/12/01 03:10:54;;;;;;;10.33;2.30;;;7.40;99.90;;;;;;4419096;32;20627;-69
2020/12/01 03:13:20;;;;;;;22.53;3.87;;;7.40;99.90;;;;;;4418802;32;20190;-67
2020/12/01 03:15:49;;;;;;;22.30;3.57;;;7.20;99.90;;;;;;4418313;32;20169;-68
2020/12/01 03:18:16;;;;;;;17.70;3.80;;;7.40;99.90;;;;;;4419218;32;20203;-68
2020/12/01 03:20:43;;;;;;;14.53;2.87;;;7.40;99.90;;;;;;4416773;32;20203;-68
2020/12/01 03:23:09;;;;;;;20.47;2.67;;;7.20;99.90;;;;;;4409314;32;20223;-68
2020/12/01 03:25:35;;;;;;;18.20;3.00;;;7.40;99.90;;;;;;4411656;32;20646;-70
2020/12/01 03:28:01;;;;;;;10.30;2.00;;;7.30;99.90;;;;;;4423593;32;20214;-69
2020/12/01 03:30:28;;;;;;;15.87;3.30;;;7.20;99.90;;;;;;4421618;32;20203;-69
2020/12/01 03:32:54;;;;;;;16.53;3.03;;;7.40;99.90;;;;;;4423247;32;20299;-68
2020/12/01 03:35:21;;;;;;;15.63;2.40;;;7.30;99.90;;;;;;4423526;32;20193;-69
2020/12/01 03:37:49;;;;;;;13.70;2.43;;;7.20;99.90;;;;;;4422802;32;20178;-68
2020/12/01 03:40:16;;;;;;;15.27;3.00;;;7.20;99.90;;;;;;4415505;32;20295;-68
2020/12/01 03:42:42;;;;;;;15.07;3.10;;;7.20;99.90;;;;;;4423549;32;20202;-70
2020/12/01 03:45:08;;;;;;;9.83;1.90;;;7.20;99.90;;;;;;4419000;32;20594;-68
2020/12/01 03:47:34;;;;;;;16.23;3.10;;;7.30;99.90;;;;;;4422815;32;20195;-67
2020/12/01 03:50:01;;;;;;;15.47;2.90;;;7.30;99.90;;;;;;4423258;32;20203;-69
2020/12/01 03:52:28;;;;;;;13.80;2.70;;;7.40;99.90;;;;;;4424015;32;20190;-68
2020/12/01 03:54:54;;;;;;;11.40;2.07;;;7.40;99.90;;;;;;4423139;32;20286;-69
2020/12/01 03:57:20;;;;;;;16.80;2.70;;;7.40;99.90;;;;;;4423819;32;20194;-68
2020/12/01 03:59:47;;;;;;;11.03;2.70;;;7.40;99.90;;;;;;4423547;32;20163;-68
2020/12/01 04:02:13;;;;;;;19.50;3.20;;;7.40;99.90;;;;;;4214027;32;6856056;-68
2020/12/01 04:04:39;;;;;;;17.40;2.43;;;7.30;99.90;;;;;;4423709;32;20206;-68
2020/12/01 04:07:05;;;;;;;9.83;2.87;;;7.30;99.90;;;;;;4423228;32;20249;-68
2020/12/01 04:09:32;;;;;;;14.40;2.63;;;7.40;99.90;;;;;;4424127;32;20210;-68
2020/12/01 04:11:59;;;;;;;13.37;3.57;;;7.40;99.90;;;;;;4423435;32;20163;-68
2020/12/01 04:14:25;;;;;;;15.57;3.20;;;7.40;99.90;;;;;;4423205;32;20300;-68
2020/12/01 04:16:51;;;;;;;15.27;2.80;;;7.40;99.90;;;;;;4419788;32;20182;-68
2020/12/01 04:19:17;;;;;;;12.67;2.17;;;7.50;99.90;;;;;;4417842;32;20230;-69
2020/12/01 04:21:44;;;;;;;16.00;3.40;;;7.50;99.90;;;;;;4423635;32;20464;-68
2020/12/01 04:24:13;;;;;;;16.60;3.27;;;7.60;99.90;;;;;;4419553;32;20215;-72
2020/12/01 04:26:40;;;;;;;14.23;2.87;;;7.70;99.90;;;;;;4422991;32;20218;-68
2020/12/01 04:29:06;;;;;;;11.73;2.27;;;7.60;99.90;;;;;;4423579;32;20185;-72
2020/12/01 04:31:33;;;;;;;8.67;2.63;;;7.60;99.90;;;;;;4422745;32;20596;-73
2020/12/01 04:33:59;;;;;;;14.03;2.30;;;7.60;99.90;;;;;;4423027;32;20218;-69
2020/12/01 04:36:25;;;;;;;11.70;3.23;;;7.60;99.90;;;;;;4420557;32;20198;-68
2020/12/01 04:38:51;;;;;;;10.40;2.77;;;7.70;99.90;;;;;;4422025;32;20642;-68
2020/12/01 04:41:18;;;;;;;11.40;2.77;;;7.70;99.90;;;;;;4421205;32;20512;-69
2020/12/01 04:43:51;;;;;;;9.13;2.40;;;7.70;99.90;;;;;;4418594;32;20173;-69
2020/12/01 04:46:21;;;;;;;12.13;2.43;;;7.60;99.90;;;;;;4420631;32;20247;-67
2020/12/01 04:48:51;;;;;;;8.33;2.73;;;7.70;99.90;;;;;;4421070;32;20222;-68
2020/12/01 04:51:35;;;;;;;14.03;3.33;;;7.70;99.90;;;;;;4420005;32;20610;-67
2020/12/01 04:54:15;;;;;;;6.47;2.80;;;7.70;99.90;;;;;;4420630;32;20159;-68
2020/12/01 04:57:02;;;;;;;11.53;3.77;;;7.80;99.90;;;;;;4419513;32;20894;-71
2020/12/01 04:59:47;;;;;;;12.37;3.80;;;7.90;99.90;;;;;;4418674;32;20162;-69
2020/12/01 05:02:34;;;;;;;17.13;4.30;;;7.90;99.90;;;;;;4420603;32;20234;-68
2020/12/01 05:05:51;;;;;;;9.57;3.30;;;7.90;99.90;;;;;;4421149;32;20156;-69
2020/12/01 05:08:47;;;;;;;8.30;2.93;;;7.90;99.90;;;;;;4357970;32;20179;-70
2020/12/01 05:11:42;;;;;;;8.77;2.40;;;8.00;99.90;;;;;;4329192;33;20237;-70
2020/12/01 05:14:16;;;;;;;7.03;2.60;;;8.00;99.90;;;;;;4327657;33;20612;-71
2020/12/01 05:16:51;;;;;;;5.53;1.90;;;7.90;99.90;;;;;;4317510;33;20177;-72
2020/12/01 05:19:35;;;;;;;5.10;1.70;;;7.90;99.90;;;;;;4322954;33;20290;-70
2020/12/01 05:22:01;;;;;;;5.53;1.37;;;7.90;99.90;;;;;;4324702;33;20260;-69
2020/12/01 05:24:39;;;;;;;4.50;1.43;;;7.70;99.90;;;;;;4317164;33;20232;-71
2020/12/01 05:27:06;;;;;;;6.17;1.30;;;7.80;99.90;;;;;;4317512;33;20157;-72
2020/12/01 05:29:32;;;;;;;4.77;1.37;;;8.00;99.90;;;;;;4320829;33;20145;-71
2020/12/01 05:32:00;;;;;;;5.40;1.10;;;7.90;99.90;;;;;;4319245;33;20242;-72
2020/12/01 05:34:26;;;;;;;4.73;1.40;;;7.90;99.90;;;;;;4317277;33;20157;-73
2020/12/01 05:36:54;;;;;;;6.50;1.60;;;8.00;99.90;;;;;;4325175;33;20224;-71
2020/12/01 05:39:22;;;;;;;6.67;1.37;;;8.00;99.90;;;;;;4327336;33;20154;-70
2020/12/01 05:42:08;;;;;;;7.63;1.47;;;7.90;99.90;;;;;;4322993;33;20232;-72
2020/12/01 05:44:35;;;;;;;12.97;2.20;;;8.10;99.90;;;;;;4359404;32;20714;-70
2020/12/01 05:47:12;;;;;;;9.27;1.87;;;8.10;99.90;;;;;;4374541;32;20167;-72
2020/12/01 05:49:42;;;;;;;14.27;2.13;;;8.10;99.90;;;;;;4419971;32;20139;-70
2020/12/01 05:52:18;;;;;;;10.30;2.30;;;8.20;99.90;;;;;;4411193;32;20444;-70
2020/12/01 05:54:49;;;;;;;10.80;2.27;;;8.10;99.90;;;;;;4415742;32;20143;-69
2020/12/01 05:57:22;;;;;;;15.43;2.70;;;8.20;99.90;;;;;;4420194;32;20144;-70
2020/12/01 05:59:58;;;;;;;9.47;2.33;;;8.30;99.90;;;;;;4419636;32;20182;-68
2020/12/01 06:02:47;;;;;;;12.47;3.00;;;8.30;99.90;;;;;;4417969;32;20208;-70
2020/12/01 06:05:18;;;;;;;11.07;2.83;;;8.20;99.90;;;;;;4417732;32;20209;-69
2020/12/01 06:07:56;;;;;;;10.90;2.80;;;8.20;99.90;;;;;;4418475;32;20159;-69
2020/12/01 06:10:34;;;;;;;10.60;2.67;;;8.10;99.90;;;;;;4418852;32;20230;-70
2020/12/01 06:13:32;;;;;;;13.53;2.67;;;8.00;99.90;;;;;;4419162;32;20139;-70
2020/12/01 06:16:15;;;;;;;8.00;2.20;;;8.00;99.90;;;;;;4414720;32;20144;-68
2020/12/01 06:18:55;;;;;;;8.03;1.40;;;8.10;99.90;;;;;;4417707;32;20196;-70
2020/12/01 06:21:47;;;;;;;16.60;2.50;;;8.20;99.90;;;;;;4414980;32;20565;-70
2020/12/01 06:24:57;;;;;;;13.63;2.57;;;8.20;99.90;;;;;;4413307;32;20182;-69
2020/12/01 06:28:01;;;;;;;11.70;1.83;;;8.20;99.90;;;;;;4413210;32;20151;-69
2020/12/01 06:30:47;;;;;;;9.07;2.17;;;8.10;99.90;;;;;;4413760;32;20257;-68
2020/12/01 06:33:57;;;;;;;12.30;2.67;;;8.10;99.90;;;;;;4415439;32;20174;-68
2020/12/01 06:37:10;;;;;;;20.03;4.03;;;8.10;99.90;;;;;;4416868;32;20231;-72
2020/12/01 06:39:50;;;;;;;30.57;4.70;;;8.10;99.90;;;;;;4415449;32;20270;-69
2020/12/01 06:42:24;;;;;;;21.97;4.30;;;8.00;99.90;;;;;;4415192;32;20456;-70
2020/12/01 06:44:58;;;;;;;25.60;4.87;;;8.00;99.90;;;;;;4415348;32;20162;-71
2020/12/01 06:47:31;;;;;;;39.50;5.87;;;7.90;99.90;;;;;;4416130;32;20222;-68
2020/12/01 06:50:06;;;;;;;44.70;6.90;;;8.00;99.90;;;;;;4415641;32;20170;-69
2020/12/01 06:52:36;;;;;;;34.43;6.50;;;7.90;99.90;;;;;;4416486;32;20240;-70
2020/12/01 06:55:04;;;;;;;48.80;7.43;;;8.00;99.90;;;;;;4418342;32;20174;-70
2020/12/01 06:57:36;;;;;;;51.73;6.57;;;8.00;99.90;;;;;;4415733;32;20160;-69
2020/12/01 07:00:07;;;;;;;43.87;7.40;;;7.90;99.90;;;;;;4413042;32;20164;-68
2020/12/01 07:02:37;;;;;;;52.77;8.03;;;7.90;99.90;;;;;;4416851;32;20158;-69
2020/12/01 07:05:10;;;;;;;51.13;7.87;;;8.00;99.90;;;;;;4413330;32;20166;-70
2020/12/01 07:07:40;;;;;;;54.63;8.57;;;7.90;99.90;;;;;;4415207;32;20254;-69
2020/12/01 07:10:28;;;;;;;45.03;8.37;;;8.00;99.90;;;;;;4418765;32;20283;-69
2020/12/01 07:13:24;;;;;;;46.37;8.90;;;8.00;99.90;;;;;;4415469;32;20528;-69
2020/12/01 07:15:53;;;;;;;46.70;8.97;;;7.90;99.90;;;;;;4416947;32;20174;-71
2020/12/01 07:18:30;;;;;;;54.60;7.67;;;8.00;99.90;;;;;;4416196;32;20140;-69
2020/12/01 07:21:48;;;;;;;55.13;8.07;;;8.00;99.90;;;;;;4412481;32;20582;-70
2020/12/01 07:24:33;;;;;;;58.53;7.57;;;7.90;99.90;;;;;;4352296;33;20710;-70
2020/12/01 07:27:08;;;;;;;44.27;8.17;;;8.00;99.90;;;;;;4352875;33;20287;-70
2020/12/01 07:30:01;;;;;;;57.23;8.37;;;8.00;99.90;;;;;;4343846;33;20176;-70
2020/12/01 07:32:42;;;;;;;48.27;8.37;;;7.90;99.90;;;;;;4343642;33;20220;-72
2020/12/01 07:35:14;;;;;;;46.13;7.43;;;7.90;99.90;;;;;;4356734;33;20160;-69
2020/12/01 07:41:28;;;;;;;54.97;9.40;;;7.90;99.90;;;;;;4348041;33;20239;-70
2020/12/01 07:44:07;;;;;;;49.67;9.20;;;7.90;99.90;;;;;;4351740;33;20232;-69
2020/12/01 07:46:46;;;;;;;37.47;7.77;;;8.00;99.90;;;;;;4350416;33;20172;-69
2020/12/01 07:49:12;;;;;;;45.57;8.03;;;8.00;99.90;;;;;;4345036;32;20303;-69
2020/12/01 07:51:47;;;;;;;50.53;7.30;;;7.90;99.90;;;;;;4350045;32;20156;-71
2020/12/01 07:54:19;;;;;;;55.37;8.97;;;8.10;99.90;;;;;;4343766;33;20161;-69
2020/12/01 07:56:50;;;;;;;46.33;8.40;;;7.90;99.90;;;;;;4351968;33;20190;-69
2020/12/01 07:59:20;;;;;;;59.93;8.90;;;7.90;99.90;;;;;;4360933;32;20319;-69
2020/12/01 08:01:57;;;;;;;59.60;7.57;;;8.00;99.90;;;;;;4411469;32;20529;-73
2020/12/01 08:04:27;;;;;;;47.67;7.47;;;8.10;99.90;;;;;;4417673;32;20194;-69
2020/12/01 08:07:06;;;;;;;46.03;7.87;;;8.10;99.90;;;;;;4417924;32;20562;-69
2020/12/01 08:09:33;;;;;;;42.17;7.40;;;8.10;99.90;;;;;;4412425;32;20204;-69
2020/12/01 08:12:08;;;;;;;43.57;7.83;;;7.80;99.90;;;;;;4420712;32;20219;-68
2020/12/01 08:14:40;;;;;;;47.97;7.80;;;8.00;99.90;;;;;;4421311;32;20604;-70
2020/12/01 08:17:16;;;;;;;45.33;7.77;;;8.10;99.90;;;;;;4418292;32;20186;-69
2020/12/01 08:19:46;;;;;;;48.90;8.70;;;8.10;99.90;;;;;;4409850;32;20206;-71
2020/12/01 08:22:20;;;;;;;37.03;7.80;;;8.10;99.90;;;;;;4415045;32;20183;-70
2020/12/01 08:24:56;;;;;;;43.27;6.87;;;8.00;99.90;;;;;;4412122;32;20139;-70
2020/12/01 08:27:35;;;;;;;49.07;6.93;;;8.00;99.90;;;;;;4420756;32;20185;-71
2020/12/01 08:30:09;;;;;;;41.90;8.13;;;8.10;99.90;;;;;;4421656;32;20151;-71
2020/12/01 08:32:41;;;;;;;33.50;7.27;;;8.00;99.90;;;;;;4418794;32;20605;-70
2020/12/01 08:35:24;;;;;;;45.80;7.13;;;8.00;99.90;;;;;;4419250;32;20234;-67
2020/12/01 08:38:01;;;;;;;49.37;9.37;;;8.00;99.90;;;;;;4420170;32;20568;-70
2020/12/01 08:40:45;;;;;;;33.20;6.17;;;8.00;99.90;;;;;;4420869;32;20177;-67
2020/12/01 08:43:24;;;;;;;35.60;7.53;;;8.10;99.90;;;;;;4421188;32;20510;-69
2020/12/01 08:51:39;;;;;;;38.23;6.90;;;8.00;99.90;;;;;;4359517;32;20176;-72
2020/12/01 08:54:13;;;;;;;37.30;7.47;;;8.10;99.90;;;;;;4366688;32;20200;-68
2020/12/01 08:57:12;;;;;;;42.73;8.47;;;8.10;99.90;;;;;;4367449;32;20236;-69
2020/12/01 08:59:48;;;;;;;49.77;8.07;;;8.10;99.90;;;;;;4365920;32;20203;-71
2020/12/01 09:02:21;;;;;;;54.90;8.37;;;8.10;99.90;;;;;;4362402;32;20235;-70
2020/12/01 09:05:05;;;;;;;49.30;7.30;;;8.10;99.90;;;;;;4369056;32;20168;-71
2020/12/01 09:07:41;;;;;;;31.30;5.97;;;8.10;99.90;;;;;;4364095;32;20190;-69
2020/12/01 09:10:19;;;;;;;43.13;7.87;;;8.10;99.90;;;;;;4364760;32;20160;-69
2020/12/01 09:13:01;;;;;;;42.20;6.40;;;8.10;99.90;;;;;;4358679;32;20253;-69
2020/12/01 09:15:38;;;;;;;50.37;7.83;;;8.10;99.90;;;;;;4366909;32;20172;-70
2020/12/01 09:18:29;;;;;;;38.13;6.07;;;8.10;99.90;;;;;;4367720;32;20601;-69
2020/12/01 09:24:16;;;;;;;38.03;7.67;;;8.10;99.90;;;;;;4358452;32;20227;-69
2020/12/01 09:26:42;;;;;;;40.77;6.23;;;8.20;99.90;;;;;;4382365;32;20160;-69
2020/12/01 09:29:12;;;;;;;29.63;6.57;;;8.20;99.90;;;;;;4385096;32;20279;-70
2020/12/01 09:31:41;;;;;;;33.60;6.37;;;8.20;99.90;;;;;;4385749;32;20155;-69
2020/12/01 09:34:22;;;;;;;33.47;6.73;;;8.20;99.90;;;;;;4387815;32;20183;-71
2020/12/01 09:36:58;;;;;;;37.70;6.37;;;8.20;99.90;;;;;;4387124;32;20167;-71
2020/12/01 09:39:27;;;;;;;33.67;6.40;;;8.20;99.90;;;;;;4388425;32;20231;-72
2020/12/01 09:42:07;;;;;;;41.67;6.57;;;8.20;99.90;;;;;;4386503;32;20663;-73
2020/12/01 09:44:56;;;;;;;32.47;6.40;;;8.20;99.90;;;;;;4387557;32;20351;-70
2020/12/01 09:47:35;;;;;;;29.27;5.57;;;8.20;99.90;;;;;;4386510;32;20160;-72
2020/12/01 09:50:08;;;;;;;35.93;6.63;;;8.20;99.90;;;;;;4386749;32;20164;-71
2020/12/01 09:53:00;;;;;;;31.50;5.80;;;8.20;99.90;;;;;;4376800;32;20160;-69
2020/12/01 09:55:49;;;;;;;22.27;5.27;;;8.20;99.90;;;;;;4384474;32;20197;-70
2020/12/01 10:09:39;;;;;;;33.40;6.20;;;8.40;99.90;;;;;;4313284;33;20479;-73
2020/12/01 10:18:22;;;;;;;35.97;6.00;;;8.30;99.90;;;;;;4311939;33;20162;-72
2020/12/01 10:35:28;;;;;;;28.67;5.47;;;8.30;99.90;;;;;;4235561;33;20164;-72
2020/12/01 10:37:58;;;;;;;31.40;6.30;;;8.20;99.90;;;;;;4260436;33;20313;-69
2020/12/01 10:40:28;;;;;;;31.10;5.83;;;8.30;99.90;;;;;;4292247;33;20161;-71
2020/12/01 10:42:58;;;;;;;33.53;4.93;;;8.30;99.90;;;;;;4304264;33;20308;-74
2020/12/01 10:45:27;;;;;;;33.80;5.47;;;8.40;99.90;;;;;;4312789;33;20247;-71
2020/12/01 10:47:54;;;;;;;29.47;5.30;;;8.30;99.90;;;;;;4312442;33;20149;-70
2020/12/01 10:50:26;;;;;;;23.17;5.27;;;8.30;99.90;;;;;;4312608;33;20169;-72
2020/12/01 10:52:55;;;;;;;29.07;4.63;;;8.30;99.90;;;;;;4310632;33;20556;-70
2020/12/01 10:55:32;;;;;;;30.43;4.37;;;8.50;99.90;;;;;;4312581;33;20575;-70
2020/12/01 10:58:04;;;;;;;34.67;5.77;;;8.50;99.90;;;;;;4312609;33;20231;-70
2020/12/01 11:00:39;;;;;;;27.83;4.63;;;8.40;99.90;;;;;;4346893;33;20608;-71
2020/12/01 11:03:08;;;;;;;23.30;4.73;;;8.40;99.90;;;;;;4356553;33;20183;-73
2020/12/01 11:05:40;;;;;;;22.30;4.10;;;8.40;99.90;;;;;;4356545;33;20165;-71
2020/12/01 11:08:06;;;;;;;29.67;5.03;;;8.40;99.90;;;;;;4355489;33;20164;-69
2020/12/01 11:10:37;;;;;;;27.17;5.33;;;8.40;99.90;;;;;;4415293;32;20211;-70
2020/12/01 11:13:08;;;;;;;24.53;5.03;;;8.30;99.90;;;;;;4420331;32;20491;-70
2020/12/01 11:15:41;;;;;;;27.97;4.67;;;8.40;99.90;;;;;;4408589;32;20580;-71
2020/12/01 11:18:11;;;;;;;24.03;5.17;;;8.50;99.90;;;;;;4408746;32;20175;-71
2020/12/01 11:20:37;;;;;;;20.17;4.50;;;8.40;99.90;;;;;;4413045;32;20595;-70
2020/12/01 11:23:06;;;;;;;34.53;5.83;;;8.40;99.90;;;;;;4419065;32;20472;-69
2020/12/01 11:25:33;;;;;;;20.07;5.23;;;8.50;99.90;;;;;;4418148;32;20159;-70
2020/12/01 11:27:59;;;;;;;35.23;5.63;;;8.60;99.90;;;;;;4418213;32;20177;-70
2020/12/01 11:30:31;;;;;;;32.20;5.70;;;8.50;99.90;;;;;;4417162;32;20564;-70
2020/12/01 11:33:01;;;;;;;22.20;3.97;;;8.60;99.90;;;;;;4416469;32;20210;-73
2020/12/01 11:35:29;;;;;;;33.83;6.03;;;8.80;99.90;;;;;;4418372;32;20503;-71
2020/12/01 11:37:58;;;;;;;27.23;5.57;;;8.60;99.90;;;;;;4416252;32;20151;-72
2020/12/01 11:40:39;;;;;;;18.23;4.63;;;8.70;99.90;;;;;;4418941;32;20515;-73
2020/12/01 11:43:10;;;;;;;24.67;4.50;;;8.80;99.90;;;;;;4416025;32;20152;-71
2020/12/01 11:45:47;;;;;;;22.30;4.67;;;8.80;99.90;;;;;;4417144;32;20143;-70
2020/12/01 11:48:26;;;;;;;24.10;4.53;;;8.70;99.90;;;;;;4421472;32;20204;-70
2020/12/01 11:50:56;;;;;;;26.53;4.60;;;8.80;99.90;;;;;;4421278;32;20527;-71
2020/12/01 11:53:32;;;;;;;23.13;4.60;;;8.70;99.90;;;;;;4421026;32;20215;-71
2020/12/01 11:56:04;;;;;;;24.37;6.07;;;8.70;99.90;;;;;;4410315;32;20213;-70
2020/12/01 11:58:33;;;;;;;21.97;3.77;;;8.70;99.90;;;;;;4414766;32;20550;-69
2020/12/01 12:01:11;;;;;;;22.60;4.20;;;8.80;99.90;;;;;;4400475;32;20237;-71
2020/12/01 12:03:40;;;;;;;23.93;4.80;;;8.80;99.90;;;;;;4393958;32;20144;-70
2020/12/01 12:06:12;;;;;;;23.00;4.53;;;8.90;99.90;;;;;;4404312;32;20144;-68
2020/12/01 12:08:41;;;;;;;25.23;5.53;;;8.80;99.90;;;;;;4393310;32;20140;-69
2020/12/01 12:11:20;;;;;;;16.67;4.20;;;8.80;99.90;;;;;;4396703;32;20227;-71
2020/12/01 12:13:48;;;;;;;25.57;5.23;;;8.90;99.90;;;;;;4393057;32;20479;-69
2020/12/01 12:16:18;;;;;;;19.60;4.17;;;8.90;99.90;;;;;;4397286;32;20198;-69
2020/12/01 12:24:59;;;;;;;21.23;5.07;;;9.00;99.90;;;;;;4352355;33;20252;-69
2020/12/01 12:27:36;;;;;;;31.23;5.10;;;9.00;99.90;;;;;;4346916;32;20236;-68
2020/12/01 12:30:06;;;;;;;21.57;5.07;;;9.00;99.90;;;;;;4348247;33;20179;-69
2020/12/01 12:32:33;;;;;;;26.07;4.73;;;8.90;99.90;;;;;;4354492;33;20188;-69
2020/12/01 12:35:00;;;;;;;18.97;4.37;;;9.00;99.90;;;;;;4356506;33;20200;-69
2020/12/01 12:37:26;;;;;;;38.90;5.83;;;8.90;99.90;;;;;;4350716;33;20164;-69
2020/12/01 12:39:52;;;;;;;25.77;5.17;;;8.80;99.90;;;;;;4349431;33;20160;-70
2020/12/01 12:42:24;;;;;;;25.13;5.20;;;8.70;99.90;;;;;;4354281;32;20153;-67
2020/12/01 12:44:59;;;;;;;23.67;4.23;;;8.80;99.90;;;;;;4352503;33;20201;-67
2020/12/01 12:47:26;;;;;;;25.63;4.70;;;8.90;99.90;;;;;;4346213;33;20172;-70
2020/12/01 12:50:08;;;;;;;28.17;5.00;;;9.10;99.90;;;;;;4349913;33;20187;-71
2020/12/01 12:52:34;;;;;;;21.93;4.60;;;9.10;99.90;;;;;;4344171;33;20165;-70
2020/12/01 12:55:04;;;;;;;24.93;4.67;;;9.20;99.90;;;;;;4342638;33;20172;-70
2020/12/01 12:57:35;;;;;;;26.37;5.60;;;9.10;99.90;;;;;;4344399;32;20538;-68
2020/12/01 13:00:07;;;;;;;33.87;4.60;;;9.30;99.90;;;;;;4346315;33;20175;-69
2020/12/01 13:02:35;;;;;;;18.97;4.33;;;9.20;99.90;;;;;;4378546;32;20164;-68
2020/12/01 13:05:07;;;;;;;25.67;4.63;;;9.30;99.90;;;;;;4402785;32;20163;-70
2020/12/01 13:07:42;;;;;;;27.73;4.77;;;9.40;99.90;;;;;;4390919;32;20178;-68
2020/12/01 13:10:08;;;;;;;29.17;5.33;;;9.40;99.90;;;;;;4396745;32;20197;-68
2020/12/01 13:12:35;;;;;;;22.87;4.93;;;9.30;99.90;;;;;;4403841;32;20580;-67
2020/12/01 13:15:01;;;;;;;25.90;4.80;;;9.30;99.90;;;;;;4402628;32;20186;-69
2020/12/01 13:17:36;;;;;;;22.50;4.47;;;9.20;99.90;;;;;;4399236;32;20168;-69
2020/12/01 13:20:08;;;;;;;27.70;4.33;;;9.20;99.90;;;;;;4397108;32;20143;-68
2020/12/01 13:22:37;;;;;;;19.63;3.80;;;9.20;99.90;;;;;;4389861;32;20224;-69
2020/12/01 13:25:14;;;;;;;17.40;4.07;;;9.10;99.90;;;;;;4405544;32;20162;-69
2020/12/01 13:27:58;;;;;;;27.80;4.47;;;9.20;99.90;;;;;;4400578;32;20155;-69
2020/12/01 13:30:25;;;;;;;27.07;5.20;;;9.20;99.90;;;;;;4390615;32;20170;-69
2020/12/01 13:33:01;;;;;;;18.63;3.60;;;9.20;99.90;;;;;;4394789;32;20226;-69
2020/12/01 13:35:38;;;;;;;22.73;4.80;;;9.30;99.90;;;;;;4390566;32;20144;-70
2020/12/01 13:38:09;;;;;;;22.97;4.80;;;9.10;99.90;;;;;;4394073;32;20152;-68
2020/12/01 13:40:42;;;;;;;24.53;4.40;;;9.30;99.90;;;;;;4389689;32;20558;-69
2020/12/01 13:43:14;;;;;;;23.60;4.63;;;9.10;99.90;;;;;;4394266;32;20206;-67
2020/12/01 13:45:43;;;;;;;22.00;4.40;;;9.10;99.90;;;;;;4393860;32;20168;-69
2020/12/01 13:48:10;;;;;;;28.07;5.63;;;9.10;99.90;;;;;;4395056;32;20294;-69
2020/12/01 13:50:40;;;;;;;25.37;5.40;;;9.10;99.90;;;;;;4390802;32;20145;-69
2020/12/01 13:53:10;;;;;;;24.63;5.40;;;9.20;99.90;;;;;;4397380;32;20152;-69
2020/12/01 13:55:42;;;;;;;26.10;5.00;;;9.10;99.90;;;;;;4390088;32;20145;-68
2020/12/01 13:58:08;;;;;;;20.07;5.00;;;9.00;99.90;;;;;;4395804;32;20403;-68
2020/12/01 14:00:34;;;;;;;21.60;5.97;;;9.20;99.90;;;;;;4389957;32;20294;-68
2020/12/01 14:03:04;;;;;;;23.33;5.23;;;9.20;99.90;;;;;;4399961;32;20153;-69
2020/12/01 14:05:38;;;;;;;27.40;5.17;;;9.20;99.90;;;;;;4402638;32;20156;-69